KFRI/FRI METAR and TAF weather

Enter ICAO airport designator
Station Type Date Time Source
KFRI METAR 2018/12/10 12:56 UTC NOAA

KFRI 101256Z AUTO 00000KT 10SM CLR M09/M12 A3033 RMK AO2 SLP285 T10941116


Station Type Date Time Source
KFRI Decoded METAR 2018/12/10 12:56 UTC NOAA

Fort Riley, Marshall AAF Ft Riley, KS, United States (KFRI) 39-03-20N 096-45-51W
Dec 10, 2018 - 07:56 AM EST / 2018.12.10 1256 UTC
Wind: Calm:0
Visibility: 10 mile(s):0
Sky conditions: clear
Temperature: 15.1 F (-9.4 C)
Dew Point: 11.1 F (-11.6 C)
Relative Humidity: 83%
Pressure (altimeter): 30.33 in. Hg (1027 hPa)
ob: KFRI 101256Z AUTO 00000KT 10SM CLR M09/M12 A3033 RMK AO2 SLP285 T10941116
cycle: 13

Station Type Date Time Source
KFRI TAF 2018/12/10 12:48 UTC NOAA

TAF
AMD KFRI 101240Z 1012/1114 VRB06KT 9999 SKC QNH3007INS TX05/1021Z TNM09/1012Z


Example: see airport list